This is the latest recevied weather packets stored in our database for station/object KQ4OSL. If no packets are shown the sender has not sent any weather packets the latest 1 day(s).
| Time | Temp. | Humidity | Pressure | Rain* | Wind** | Luminosity | Snow |
|---|---|---|---|---|---|---|---|
| 1778043875 | 18.89° C | 80% | 1015 hPa | 0 mm | 1.34 m/s, 257° | 0 W/m² | - |
| 1778043571 | 18.89° C | 80% | 1014.9 hPa | 0 mm | 1.79 m/s, 258° | 0 W/m² | - |
| 1778043268 | 18.89° C | 79% | 1014.9 hPa | 0 mm | 1.79 m/s, 234° | 0 W/m² | - |
| 1778042965 | 18.33° C | 79% | 1014.8 hPa | 0 mm | 0.89 m/s, 255° | 0 W/m² | - |
| 1778042663 | 18.33° C | 79% | 1015.1 hPa | 0 mm | 0.45 m/s, 244° | 0 W/m² | - |
| 1778042360 | 18.33° C | 78% | 1015.2 hPa | 0 mm | 0.89 m/s, 245° | 0 W/m² | - |
| 1778042057 | 18.33° C | 78% | 1015 hPa | 0 mm | 0.45 m/s, 233° | 0 W/m² | - |
| 1778041755 | 18.33° C | 77% | 1015.1 hPa | 0 mm | 0.45 m/s, 231° | 0 W/m² | - |
| 1778041454 | 18.33° C | 77% | 1015.3 hPa | 0 mm | 0.89 m/s, 237° | 0 W/m² | - |
| 1778041152 | 17.78° C | 77% | 1015.1 hPa | 0 mm | 0.89 m/s, 249° | 0 W/m² | - |
| 1778040849 | 17.78° C | 77% | 1015 hPa | 0 mm | 0.89 m/s, 257° | 0 W/m² | - |
| 1778040546 | 17.78° C | 76% | 1015.3 hPa | 0 mm | 0.45 m/s, 250° | 0 W/m² | - |
| 1778040244 | 17.78° C | 76% | 1015.1 hPa | 0 mm | 0 m/s | 0 W/m² | - |
| 1778039939 | 18.33° C | 75% | 1015 hPa | 0 mm | 0.45 m/s, 252° | 0 W/m² | - |
| 1778039637 | 18.33° C | 76% | 1014.9 hPa | 0 mm | 0.45 m/s, 254° | 0 W/m² | - |
| 1778039334 | 18.89° C | 73% | 1014.7 hPa | 0 mm | 0.45 m/s, 199° | 0 W/m² | - |
| 1778039031 | 18.89° C | 73% | 1014.9 hPa | 0 mm | 0.45 m/s, 252° | 0 W/m² | - |
| 1778038728 | 18.89° C | 73% | 1015.1 hPa | 0 mm | 0.89 m/s, 253° | 0 W/m² | - |
| 1778038425 | 18.89° C | 73% | 1015.2 hPa | 0 mm | 0.45 m/s, 250° | 0 W/m² | - |
| 1778038122 | 18.89° C | 73% | 1015.3 hPa | 0 mm | 0.45 m/s, 251° | 0 W/m² | - |
| 1778037819 | 18.89° C | 71% | 1015.3 hPa | 0 mm | 0.89 m/s, 233° | 0 W/m² | - |
| 1778037516 | 18.89° C | 73% | 1015.4 hPa | 0 mm | 0.45 m/s, 255° | 0 W/m² | - |
| 1778037213 | 18.89° C | 72% | 1015.5 hPa | 0 mm | 0 m/s | 0 W/m² | - |
| 1778036911 | 18.89° C | 71% | 1015.6 hPa | 0 mm | 0 m/s | 0 W/m² | - |
| 1778036609 | 18.89° C | 71% | 1015.6 hPa | 0 mm | 0.45 m/s, 247° | 0 W/m² | - |
* Rain latest hour (hover to see other rain measurements)
** Current wind speed in m/s (hover to see current wind gust speed)